Time;durP1;ratioP1;P1;durP2;ratioP2;P2;SDS_P1;SDS_P2;PMS_P1;PMS_P2;Temp;Humidity;BMP_temperature;BMP_pressure;BME280_temperature;BME280_humidity;BME280_pressure;Samples;Min_cycle;Max_cycle;Signal;HPM_P1;HPM_P2
2021/04/21 00:00:00;;;;;;;21.60;13.20;;;10.60;78.40;;;;;;5049232;28;20382;-84
2021/04/21 00:02:27;;;;;;;20.27;13.07;;;10.60;77.90;;;;;;5050276;28;20470;-83
2021/04/21 00:04:57;;;;;;;22.75;13.38;;;10.50;78.60;;;;;;5050063;28;20382;-82
2021/04/21 00:07:23;;;;;;;21.90;14.20;;;10.50;78.10;;;;;;5048914;28;20393;-83
2021/04/21 00:09:52;;;;;;;21.77;13.25;;;10.50;78.00;;;;;;5049814;28;20460;-82
2021/04/21 00:12:19;;;;;;;27.10;14.23;;;10.40;78.60;;;;;;5048955;28;20416;-82
2021/04/21 00:14:45;;;;;;;23.33;14.35;;;10.40;78.50;;;;;;5048683;28;20381;-82
2021/04/21 00:17:12;;;;;;;22.52;14.15;;;10.20;79.80;;;;;;5049746;28;20382;-82
2021/04/21 00:19:40;;;;;;;21.25;14.18;;;10.10;80.20;;;;;;5050058;28;20373;-82
2021/04/21 00:22:08;;;;;;;22.70;14.52;;;10.20;79.60;;;;;;5050184;28;20413;-82
2021/04/21 00:24:37;;;;;;;24.38;14.93;;;10.10;79.70;;;;;;5048961;28;20440;-82
2021/04/21 00:27:04;;;;;;;23.88;15.18;;;10.10;79.30;;;;;;5049997;28;20785;-82
2021/04/21 00:29:30;;;;;;;23.92;14.77;;;9.90;79.50;;;;;;5048038;28;20420;-83
2021/04/21 00:31:59;;;;;;;27.13;14.93;;;9.90;79.70;;;;;;5049573;28;20413;-83
2021/04/21 00:34:26;;;;;;;26.88;14.32;;;9.90;79.80;;;;;;5047599;28;20464;-82
2021/04/21 00:36:54;;;;;;;26.23;15.73;;;9.90;79.40;;;;;;5048917;28;20373;-83
2021/04/21 00:39:21;;;;;;;22.40;15.40;;;10.00;79.00;;;;;;5050173;28;20480;-82
2021/04/21 00:42:23;;;;;;;21.67;14.45;;;10.00;79.10;;;;;;5049498;28;20381;-82
2021/04/21 00:45:15;;;;;;;23.60;15.85;;;9.90;78.90;;;;;;5051159;28;20575;-82
2021/04/21 00:47:55;;;;;;;25.40;14.77;;;9.70;79.70;;;;;;5051809;28;20389;-83
2021/04/21 00:50:33;;;;;;;22.40;14.52;;;9.80;79.30;;;;;;5053564;28;20468;-82
2021/04/21 00:53:16;;;;;;;25.60;15.00;;;9.80;79.20;;;;;;5052215;28;20397;-83
2021/04/21 00:56:18;;;;;;;25.45;14.95;;;9.70;79.30;;;;;;5053541;28;20714;-82
2021/04/21 00:58:55;;;;;;;27.20;15.32;;;9.60;79.80;;;;;;5052868;28;20377;-82
2021/04/21 01:01:22;;;;;;;25.02;14.82;;;9.50;79.90;;;;;;5052316;28;20401;-82
2021/04/21 01:03:51;;;;;;;24.65;15.30;;;9.50;80.00;;;;;;5051815;28;20423;-82
2021/04/21 01:06:26;;;;;;;24.60;15.02;;;9.40;80.00;;;;;;5053559;28;20848;-82
2021/04/21 01:08:56;;;;;;;24.98;15.30;;;9.40;79.90;;;;;;5051548;28;20393;-82
2021/04/21 01:11:33;;;;;;;25.90;14.85;;;9.30;80.20;;;;;;5051994;28;20417;-82
2021/04/21 01:14:08;;;;;;;24.77;16.13;;;9.30;79.70;;;;;;5051501;28;20385;-82
2021/04/21 01:16:35;;;;;;;23.95;15.90;;;9.20;80.20;;;;;;5051656;28;20476;-86
2021/04/21 01:19:18;;;;;;;23.80;15.50;;;9.30;80.00;;;;;;5051128;28;20389;-82
2021/04/21 01:21:57;;;;;;;23.80;15.50;;;9.30;79.70;;;;;;5051884;28;20377;-82
2021/04/21 01:24:47;;;;;;;24.10;15.27;;;9.40;79.50;;;;;;5053703;28;20423;-82
2021/04/21 01:27:17;;;;;;;24.25;15.82;;;9.40;79.60;;;;;;5052783;28;20713;-82
2021/04/21 01:29:46;;;;;;;25.42;15.50;;;9.20;79.60;;;;;;5052856;28;20846;-82
2021/04/21 01:32:24;;;;;;;28.02;16.20;;;9.20;80.10;;;;;;5051522;28;20436;-83
2021/04/21 01:34:53;;;;;;;29.40;17.00;;;8.90;80.80;;;;;;5052676;28;20856;-81
2021/04/21 01:37:25;;;;;;;23.27;16.20;;;8.90;80.90;;;;;;5051195;28;20413;-82
2021/04/21 01:40:06;;;;;;;26.73;16.27;;;8.80;81.10;;;;;;5051123;28;20716;-82
2021/04/21 01:42:35;;;;;;;24.37;15.90;;;8.90;80.50;;;;;;5052905;28;20410;-82
2021/04/21 01:45:02;;;;;;;26.83;16.30;;;9.00;80.00;;;;;;5051158;28;20480;-82
2021/04/21 01:47:28;;;;;;;30.15;17.73;;;8.90;80.20;;;;;;5051976;28;20883;-82
2021/04/21 01:49:59;;;;;;;25.80;16.60;;;8.50;81.20;;;;;;5051830;28;20382;-84
2021/04/21 01:52:37;;;;;;;26.30;16.80;;;8.60;81.50;;;;;;5051177;28;20409;-82
2021/04/21 01:55:15;;;;;;;25.13;16.38;;;8.70;81.00;;;;;;5050756;28;20845;-82
2021/04/21 01:58:10;;;;;;;25.77;16.33;;;8.90;80.40;;;;;;5051206;28;20718;-82
2021/04/21 02:00:41;;;;;;;27.42;17.10;;;8.80;80.20;;;;;;5031620;28;20734;-82
2021/04/21 02:03:21;;;;;;;28.08;16.88;;;8.90;80.30;;;;;;5052144;28;20377;-83
2021/04/21 02:06:15;;;;;;;28.90;17.10;;;8.60;80.80;;;;;;5052192;28;20378;-82
2021/04/21 02:09:05;;;;;;;28.52;17.50;;;8.50;81.20;;;;;;5051860;28;20385;-82
2021/04/21 02:11:34;;;;;;;30.45;18.42;;;8.50;81.30;;;;;;5051647;28;20410;-82
2021/04/21 02:14:21;;;;;;;29.42;18.15;;;8.40;81.10;;;;;;5052108;28;20410;-82
2021/04/21 02:17:35;;;;;;;29.90;17.38;;;8.60;80.70;;;;;;5051473;28;20472;-82
2021/04/21 02:20:15;;;;;;;26.75;17.02;;;8.60;80.60;;;;;;5034425;28;20390;-82
2021/04/21 02:22:52;;;;;;;29.75;18.02;;;8.40;81.20;;;;;;5050495;28;20386;-83
2021/04/21 02:25:32;;;;;;;30.80;18.63;;;8.40;81.10;;;;;;5050369;28;20485;-83
2021/04/21 02:28:28;;;;;;;29.55;18.60;;;8.20;82.00;;;;;;5049937;28;20473;-81
2021/04/21 02:31:22;;;;;;;34.63;18.93;;;8.00;82.50;;;;;;5051044;28;20428;-82
2021/04/21 02:34:13;;;;;;;30.35;18.52;;;8.20;81.90;;;;;;5051449;28;20413;-82
2021/04/21 02:36:50;;;;;;;27.70;17.75;;;8.20;81.60;;;;;;5051068;28;20725;-82
2021/04/21 02:39:18;;;;;;;29.85;18.52;;;8.20;81.70;;;;;;5049777;28;20446;-81
2021/04/21 02:42:06;;;;;;;32.40;18.75;;;8.10;81.60;;;;;;5049966;28;20400;-81
2021/04/21 02:45:05;;;;;;;33.80;19.25;;;8.00;82.10;;;;;;5051229;28;20412;-82
2021/04/21 02:47:37;;;;;;;30.98;19.00;;;7.90;82.40;;;;;;5050586;28;20385;-81
2021/04/21 02:50:06;;;;;;;29.70;18.50;;;7.80;83.10;;;;;;5051382;28;20366;-82
2021/04/21 02:52:56;;;;;;;34.53;19.27;;;7.90;82.50;;;;;;5049428;28;20750;-81
2021/04/21 02:55:31;;;;;;;33.80;20.05;;;8.00;82.00;;;;;;5051316;28;20388;-81
2021/04/21 02:58:12;;;;;;;33.85;19.30;;;7.80;82.50;;;;;;5049006;28;20408;-82
2021/04/21 03:00:47;;;;;;;33.03;19.10;;;7.90;82.30;;;;;;5050927;28;20388;-81
2021/04/21 03:03:48;;;;;;;32.13;19.08;;;7.80;82.20;;;;;;5049774;28;20381;-82
2021/04/21 03:06:22;;;;;;;29.95;18.67;;;7.80;82.50;;;;;;5050484;28;20389;-81
2021/04/21 03:08:59;;;;;;;30.23;19.17;;;7.90;81.90;;;;;;5049904;28;20594;-82
2021/04/21 03:11:30;;;;;;;35.25;20.05;;;7.90;81.70;;;;;;5049425;28;20409;-81
2021/04/21 03:14:02;;;;;;;32.45;19.52;;;7.80;81.80;;;;;;5049081;28;20476;-81
2021/04/21 03:16:34;;;;;;;31.55;19.88;;;7.90;81.90;;;;;;5050884;28;20377;-83
2021/04/21 03:19:06;;;;;;;30.88;19.08;;;7.80;82.40;;;;;;5050711;28;20382;-82
2021/04/21 03:21:36;;;;;;;34.80;19.40;;;7.60;82.90;;;;;;5049171;28;20409;-82
2021/04/21 03:24:13;;;;;;;32.65;19.48;;;7.50;83.10;;;;;;5049790;28;20710;-82
2021/04/21 03:26:41;;;;;;;37.72;19.83;;;7.60;82.90;;;;;;5048822;28;20400;-82
2021/04/21 03:29:16;;;;;;;32.97;19.67;;;7.60;82.90;;;;;;5050844;28;20528;-82
2021/04/21 03:31:44;;;;;;;33.08;20.38;;;7.50;82.90;;;;;;5049159;28;20959;-82
2021/04/21 03:34:13;;;;;;;33.25;20.20;;;7.70;82.10;;;;;;5049046;28;20873;-83
2021/04/21 03:36:42;;;;;;;32.07;21.03;;;7.70;82.30;;;;;;5048711;28;20389;-82
2021/04/21 03:39:09;;;;;;;30.63;19.50;;;7.70;82.30;;;;;;5050389;28;20378;-81
2021/04/21 03:41:35;;;;;;;36.15;20.20;;;7.70;82.10;;;;;;5049465;28;20389;-82
2021/04/21 03:44:01;;;;;;;32.10;20.05;;;7.70;81.80;;;;;;5050496;28;20380;-81
2021/04/21 03:46:28;;;;;;;31.80;19.35;;;7.60;82.20;;;;;;5049269;28;20722;-82
2021/04/21 03:48:54;;;;;;;34.58;19.67;;;7.60;82.30;;;;;;5050154;28;20381;-82
2021/04/21 03:51:21;;;;;;;34.60;20.23;;;7.50;82.30;;;;;;5050620;28;20470;-82
2021/04/21 03:53:50;;;;;;;40.13;20.30;;;7.40;83.10;;;;;;5048814;28;20393;-82
2021/04/21 03:56:19;;;;;;;31.77;20.02;;;7.30;83.30;;;;;;5050609;28;20386;-81
2021/04/21 03:58:47;;;;;;;35.83;19.75;;;7.40;82.80;;;;;;5048378;28;20385;-82
2021/04/21 04:01:23;;;;;;;33.30;19.17;;;7.50;82.60;;;;;;5050590;28;20375;-83
2021/04/21 04:04:01;;;;;;;40.67;20.23;;;7.50;82.40;;;;;;5049016;28;20407;-81
2021/04/21 04:06:43;;;;;;;36.08;19.98;;;7.40;82.60;;;;;;5049041;28;20837;-82
2021/04/21 04:09:10;;;;;;;31.73;20.48;;;7.20;83.80;;;;;;5050228;28;20695;-82
2021/04/21 04:11:47;;;;;;;34.40;20.60;;;7.20;83.80;;;;;;5050044;28;20405;-82
2021/04/21 04:14:35;;;;;;;34.63;20.03;;;7.30;83.80;;;;;;5048826;28;20639;-82
2021/04/21 04:17:03;;;;;;;33.72;19.90;;;7.30;83.50;;;;;;5048316;28;20392;-82
2021/04/21 04:19:31;;;;;;;36.40;20.95;;;7.30;83.40;;;;;;5049091;28;20385;-82
2021/04/21 04:22:13;;;;;;;32.97;20.38;;;7.30;83.50;;;;;;5054256;28;20383;-81
2021/04/21 04:24:41;;;;;;;35.00;21.13;;;7.40;83.20;;;;;;5053826;28;20389;-81
2021/04/21 04:27:15;;;;;;;36.28;21.27;;;7.40;83.10;;;;;;5052419;28;20789;-82
2021/04/21 04:29:43;;;;;;;34.88;20.33;;;7.20;83.50;;;;;;5052317;28;20760;-82
2021/04/21 04:32:13;;;;;;;35.15;20.20;;;7.20;83.30;;;;;;5052908;28;20409;-81
2021/04/21 04:34:43;;;;;;;37.35;21.10;;;7.20;83.70;;;;;;5053498;28;20396;-83
2021/04/21 04:37:14;;;;;;;37.85;21.20;;;7.30;83.00;;;;;;5053529;28;20377;-82
2021/04/21 04:39:41;;;;;;;35.80;21.13;;;7.40;83.00;;;;;;5053752;28;20382;-82
2021/04/21 04:42:08;;;;;;;34.72;20.73;;;7.30;83.20;;;;;;5051972;28;20717;-82
2021/04/21 04:44:42;;;;;;;39.15;21.80;;;7.40;83.10;;;;;;5052354;28;20397;-82
2021/04/21 04:47:12;;;;;;;35.85;21.45;;;7.40;83.30;;;;;;5052519;28;20884;-82
2021/04/21 04:49:54;;;;;;;35.97;21.33;;;7.40;83.40;;;;;;5052420;28;20389;-82
2021/04/21 04:52:20;;;;;;;40.67;22.25;;;7.40;83.40;;;;;;5053031;28;20413;-82
2021/04/21 04:54:49;;;;;;;38.05;21.88;;;7.40;83.80;;;;;;5052235;28;20438;-81
2021/04/21 04:57:19;;;;;;;42.10;24.30;;;7.40;83.00;;;;;;5051437;28;20378;-81
2021/04/21 04:59:48;;;;;;;37.27;22.30;;;7.30;84.10;;;;;;5052319;28;20729;-83
2021/04/21 05:02:18;;;;;;;41.00;22.83;;;7.40;84.30;;;;;;5053032;28;20385;-81
2021/04/21 05:04:59;;;;;;;40.30;23.77;;;7.40;83.70;;;;;;5053055;28;20440;-82
2021/04/21 05:07:35;;;;;;;40.88;23.95;;;7.50;83.60;;;;;;5052747;28;20400;-81
2021/04/21 05:10:05;;;;;;;46.90;25.63;;;7.60;83.40;;;;;;5051430;28;20703;-82
2021/04/21 05:12:37;;;;;;;42.10;24.70;;;7.60;83.90;;;;;;5051329;28;20409;-83
2021/04/21 05:15:04;;;;;;;43.47;23.00;;;7.60;83.50;;;;;;5053074;28;20742;-81
2021/04/21 05:17:32;;;;;;;42.08;23.02;;;7.70;83.40;;;;;;5051292;28;20386;-82
2021/04/21 05:20:36;;;;;;;41.30;24.95;;;7.70;83.10;;;;;;5052991;28;20381;-82
2021/04/21 05:23:45;;;;;;;46.33;25.33;;;7.60;83.50;;;;;;5051390;28;20419;-83
2021/04/21 05:26:35;;;;;;;43.60;24.45;;;7.60;84.60;;;;;;5052710;28;20927;-81
2021/04/21 05:29:39;;;;;;;36.97;23.67;;;7.60;83.90;;;;;;5052581;28;20384;-82
2021/04/21 05:32:42;;;;;;;40.45;24.80;;;7.60;84.10;;;;;;5051444;28;20416;-82
2021/04/21 05:35:46;;;;;;;40.35;24.85;;;7.80;83.70;;;;;;5053028;28;20480;-81
2021/04/21 05:38:55;;;;;;;39.65;24.20;;;7.80;83.90;;;;;;5052035;28;20413;-81
2021/04/21 05:42:06;;;;;;;41.53;23.73;;;7.80;84.00;;;;;;5051180;28;20389;-82
2021/04/21 05:45:09;;;;;;;42.83;24.17;;;7.80;83.90;;;;;;5052558;28;20421;-83
2021/04/21 05:48:05;;;;;;;36.72;23.38;;;7.80;84.00;;;;;;5050599;28;20527;-81
2021/04/21 05:51:09;;;;;;;39.88;24.48;;;7.90;83.90;;;;;;5051246;28;20392;-81
2021/04/21 05:53:49;;;;;;;44.22;24.42;;;7.90;83.80;;;;;;5052444;28;20856;-82
2021/04/21 05:56:27;;;;;;;44.35;24.48;;;7.90;83.30;;;;;;5051121;28;20840;-82
2021/04/21 05:59:31;;;;;;;41.92;25.42;;;8.10;83.60;;;;;;5050641;28;20381;-81
2021/04/21 06:01:57;;;;;;;40.67;25.48;;;8.00;83.40;;;;;;5052510;28;20389;-82
2021/04/21 06:04:24;;;;;;;52.38;27.75;;;8.10;84.30;;;;;;5050727;28;20385;-81
2021/04/21 06:07:03;;;;;;;47.70;25.95;;;8.10;84.80;;;;;;5051729;28;20393;-81
2021/04/21 06:09:28;;;;;;;47.03;26.67;;;8.10;84.20;;;;;;5050627;28;20428;-82
2021/04/21 06:12:08;;;;;;;41.53;26.00;;;8.20;83.90;;;;;;5050760;28;20828;-81
2021/04/21 06:14:34;;;;;;;47.88;27.60;;;8.30;83.60;;;;;;5050890;28;20390;-81
2021/04/21 06:17:00;;;;;;;53.10;29.08;;;8.30;84.70;;;;;;5050286;28;20480;-81
2021/04/21 06:19:27;;;;;;;59.10;33.03;;;8.40;85.00;;;;;;5043831;28;20472;-81
2021/04/21 06:21:53;;;;;;;57.83;32.70;;;8.60;87.80;;;;;;5051915;28;20730;-82
2021/04/21 06:24:24;;;;;;;71.75;38.42;;;8.80;87.50;;;;;;5051940;28;20376;-82
2021/04/21 06:26:50;;;;;;;58.08;34.78;;;8.90;86.70;;;;;;5051220;28;20381;-81
2021/04/21 06:29:16;;;;;;;66.68;37.13;;;9.30;84.70;;;;;;5051798;28;20845;-82
2021/04/21 06:31:49;;;;;;;64.72;35.90;;;9.40;85.30;;;;;;5049930;28;20900;-81
2021/04/21 06:34:15;;;;;;;65.18;36.20;;;9.40;85.50;;;;;;5051641;28;20382;-81
2021/04/21 06:36:42;;;;;;;67.37;36.17;;;9.50;84.30;;;;;;5049328;28;20392;-82
2021/04/21 06:39:09;;;;;;;61.50;35.63;;;9.70;83.80;;;;;;5042566;28;21138;-83
2021/04/21 06:41:35;;;;;;;68.97;35.65;;;9.80;83.30;;;;;;5029831;28;20396;-81
2021/04/21 06:44:02;;;;;;;54.63;31.95;;;10.00;84.40;;;;;;5034460;28;20403;-81
2021/04/21 06:46:27;;;;;;;60.65;33.20;;;10.00;81.00;;;;;;5041140;28;20383;-83
2021/04/21 06:48:56;;;;;;;52.10;32.47;;;10.10;81.20;;;;;;5030334;28;20379;-81
2021/04/21 06:51:24;;;;;;;59.90;32.88;;;10.20;82.00;;;;;;5030068;28;20449;-81
2021/04/21 06:53:52;;;;;;;58.15;32.58;;;10.30;81.50;;;;;;5030079;28;20716;-82
2021/04/21 06:56:32;;;;;;;54.47;31.70;;;10.40;80.10;;;;;;5028733;28;20387;-81
2021/04/21 06:59:00;;;;;;;60.25;31.63;;;10.50;79.30;;;;;;5029796;28;20379;-83
2021/04/21 07:01:28;;;;;;;63.30;31.00;;;10.50;79.90;;;;;;5028562;28;20402;-83
2021/04/21 07:04:14;;;;;;;56.58;31.02;;;10.60;78.40;;;;;;5028806;28;20476;-83
2021/04/21 07:06:41;;;;;;;53.17;31.33;;;10.60;78.20;;;;;;5027745;28;20407;-82
2021/04/21 07:09:14;;;;;;;60.60;30.45;;;10.70;79.00;;;;;;5029727;28;20384;-83
2021/04/21 07:11:41;;;;;;;51.25;31.15;;;10.80;78.90;;;;;;5028250;28;20500;-82
2021/04/21 07:14:08;;;;;;;57.95;30.80;;;10.90;78.10;;;;;;5028667;28;20387;-83
2021/04/21 07:16:35;;;;;;;50.10;28.80;;;10.80;75.40;;;;;;5027928;28;20776;-83
2021/04/21 07:19:08;;;;;;;54.27;29.70;;;10.70;75.60;;;;;;5029708;28;20379;-82
2021/04/21 07:21:34;;;;;;;46.00;27.50;;;10.80;75.80;;;;;;5027964;28;20388;-83
2021/04/21 07:24:03;;;;;;;47.72;27.45;;;10.90;75.80;;;;;;5028171;28;20673;-82
2021/04/21 07:26:32;;;;;;;56.60;28.58;;;11.00;76.60;;;;;;5029177;28;20881;-84
2021/04/21 07:28:58;;;;;;;56.78;29.10;;;11.10;75.00;;;;;;5027824;28;20390;-82
2021/04/21 07:31:24;;;;;;;53.60;27.73;;;11.00;75.80;;;;;;5028047;28;20414;-83
2021/04/21 07:33:50;;;;;;;49.63;28.60;;;10.90;75.80;;;;;;5029758;28;20379;-82
2021/04/21 07:36:19;;;;;;;51.30;30.05;;;11.00;75.30;;;;;;5028499;28;20385;-84
2021/04/21 07:38:50;;;;;;;45.03;28.15;;;11.10;75.10;;;;;;5027513;28;20410;-84
2021/04/21 07:41:44;;;;;;;55.90;28.92;;;11.10;75.40;;;;;;5028620;28;20449;-81
2021/04/21 07:44:34;;;;;;;45.20;27.42;;;11.10;75.20;;;;;;5029185;28;20462;-83
2021/04/21 07:47:05;;;;;;;49.00;28.77;;;11.10;75.70;;;;;;5027607;28;20741;-83
2021/04/21 07:49:34;;;;;;;47.17;27.08;;;11.00;75.00;;;;;;5028245;28;20403;-82
2021/04/21 07:52:00;;;;;;;47.13;28.17;;;11.20;74.90;;;;;;5028074;28;20721;-83
2021/04/21 07:54:28;;;;;;;47.70;28.38;;;11.30;74.80;;;;;;5027730;28;20406;-83
2021/04/21 07:57:03;;;;;;;50.60;28.30;;;11.20;73.70;;;;;;5028511;28;20914;-84
2021/04/21 07:59:31;;;;;;;46.45;27.52;;;11.30;73.40;;;;;;5029499;28;20728;-84
2021/04/21 08:02:07;;;;;;;53.63;27.38;;;11.40;73.80;;;;;;5029514;28;20897;-84
2021/04/21 08:04:32;;;;;;;47.38;27.77;;;11.50;73.10;;;;;;5027889;28;20387;-83
2021/04/21 08:07:00;;;;;;;46.25;27.30;;;11.70;72.90;;;;;;5027525;28;20969;-83
2021/04/21 08:09:35;;;;;;;45.83;27.90;;;11.80;71.90;;;;;;5027784;28;20379;-82
2021/04/21 08:12:09;;;;;;;46.93;27.17;;;11.90;72.50;;;;;;5029474;28;20459;-83
2021/04/21 08:14:40;;;;;;;51.90;28.07;;;12.20;70.70;;;;;;5027853;28;20802;-84
2021/04/21 08:17:06;;;;;;;48.65;27.17;;;12.20;70.90;;;;;;5028923;28;20383;-83
2021/04/21 08:19:36;;;;;;;45.67;27.20;;;12.30;69.00;;;;;;5027892;28;20391;-84
2021/04/21 08:22:03;;;;;;;46.35;26.48;;;12.30;69.40;;;;;;5027979;28;20422;-83
2021/04/21 08:24:37;;;;;;;45.67;26.13;;;12.30;68.90;;;;;;5029346;28;20708;-84
2021/04/21 08:27:03;;;;;;;43.03;25.58;;;12.40;66.80;;;;;;5027289;28;20387;-83
2021/04/21 08:29:30;;;;;;;47.70;26.48;;;12.60;67.40;;;;;;5028170;28;20390;-84
2021/04/21 08:31:56;;;;;;;45.70;25.83;;;12.90;65.90;;;;;;5029047;28;20415;-84
2021/04/21 08:34:22;;;;;;;42.13;25.23;;;12.90;64.70;;;;;;5028021;28;20386;-84
2021/04/21 08:36:48;;;;;;;42.07;23.00;;;12.90;63.30;;;;;;5028657;28;20379;-83
2021/04/21 08:39:14;;;;;;;45.63;23.93;;;12.90;63.10;;;;;;5029428;28;20407;-84
2021/04/21 08:41:42;;;;;;;42.22;22.23;;;13.10;63.60;;;;;;5042621;28;20393;-85
2021/04/21 08:44:09;;;;;;;38.10;23.58;;;13.20;61.90;;;;;;5047950;28;20385;-85
2021/04/21 08:46:36;;;;;;;38.60;23.38;;;13.20;61.80;;;;;;5047435;28;20404;-84
2021/04/21 08:49:03;;;;;;;41.20;22.70;;;13.40;61.30;;;;;;5047364;28;20393;-83
2021/04/21 08:51:30;;;;;;;32.08;18.63;;;13.50;59.90;;;;;;5048786;28;20536;-83
2021/04/21 08:54:09;;;;;;;37.43;18.63;;;13.90;58.10;;;;;;5047530;28;20436;-84
2021/04/21 08:56:37;;;;;;;30.80;21.00;;;13.80;55.80;;;;;;5043141;28;20410;-84
2021/04/21 08:59:09;;;;;;;32.30;22.07;;;13.70;58.10;;;;;;5034918;28;20432;-83
2021/04/21 09:01:35;;;;;;;46.13;22.20;;;13.80;58.50;;;;;;5048821;28;20381;-83
2021/04/21 09:04:00;;;;;;;30.20;18.23;;;13.90;57.10;;;;;;5047021;28;20377;-85
2021/04/21 09:06:26;;;;;;;26.90;16.90;;;14.00;53.70;;;;;;5047456;28;20401;-84
2021/04/21 09:08:52;;;;;;;32.10;17.45;;;13.90;53.10;;;;;;5050573;28;20948;-83
2021/04/21 09:11:19;;;;;;;30.15;16.17;;;14.10;51.50;;;;;;5050616;28;20445;-84
2021/04/21 09:13:46;;;;;;;33.85;16.83;;;14.20;52.20;;;;;;5049022;28;20686;-84
2021/04/21 09:16:12;;;;;;;30.10;16.52;;;14.40;53.10;;;;;;5051704;28;20374;-84
2021/04/21 09:18:37;;;;;;;29.90;19.33;;;14.40;52.10;;;;;;5050240;28;20801;-84
2021/04/21 09:21:06;;;;;;;28.50;13.60;;;14.50;52.20;;;;;;5050145;28;20782;-84
2021/04/21 09:23:42;;;;;;;24.08;14.02;;;14.70;49.80;;;;;;5050572;28;20385;-84
2021/04/21 09:26:33;;;;;;;25.27;14.38;;;14.80;48.10;;;;;;5049790;28;20741;-84
2021/04/21 09:28:59;;;;;;;29.70;14.10;;;15.00;45.70;;;;;;5051706;28;20554;-84
2021/04/21 09:31:30;;;;;;;13.32;8.43;;;15.00;47.50;;;;;;5051024;28;20405;-85
2021/04/21 09:34:11;;;;;;;17.83;8.45;;;14.80;41.40;;;;;;5050264;28;20382;-85
2021/04/21 09:36:47;;;;;;;31.55;15.02;;;14.80;43.60;;;;;;5049977;28;20429;-84
2021/04/21 09:39:23;;;;;;;24.40;11.37;;;15.00;48.30;;;;;;5051256;28;20377;-85
2021/04/21 09:41:50;;;;;;;13.25;8.05;;;15.10;44.50;;;;;;5050742;28;20404;-86
2021/04/21 09:44:19;;;;;;;17.73;8.98;;;15.00;42.80;;;;;;5049685;28;20386;-79
2021/04/21 09:46:47;;;;;;;17.23;9.38;;;15.00;42.60;;;;;;5049799;28;20534;-81
2021/04/21 09:49:40;;;;;;;18.83;9.33;;;15.00;41.80;;;;;;5050418;28;20385;-83
2021/04/21 09:52:12;;;;;;;16.35;9.38;;;15.20;41.90;;;;;;5049475;28;20409;-83
2021/04/21 09:54:45;;;;;;;20.25;9.38;;;15.10;42.80;;;;;;5049440;28;20488;-83
2021/04/21 09:57:12;;;;;;;16.85;9.50;;;15.10;41.10;;;;;;5049422;28;20394;-82
2021/04/21 09:59:39;;;;;;;16.43;9.70;;;15.30;40.80;;;;;;5051438;28;20392;-81
2021/04/21 10:02:35;;;;;;;17.77;10.07;;;15.30;41.50;;;;;;5050883;28;20408;-82
2021/04/21 10:05:33;;;;;;;18.77;9.52;;;15.70;42.00;;;;;;5050813;28;20417;-83
2021/04/21 10:08:12;;;;;;;14.10;9.10;;;15.90;42.60;;;;;;5048142;28;20407;-83
2021/04/21 10:10:39;;;;;;;13.15;8.55;;;15.60;41.30;;;;;;5050557;28;20382;-82
2021/04/21 10:13:15;;;;;;;13.43;9.00;;;15.70;40.40;;;;;;5049073;28;20441;-82
2021/04/21 10:15:41;;;;;;;19.42;8.82;;;15.90;44.00;;;;;;5039719;28;20735;-83
2021/04/21 10:18:11;;;;;;;18.43;9.60;;;15.80;40.00;;;;;;5048304;28;20400;-83
2021/04/21 10:20:36;;;;;;;15.80;8.60;;;15.90;40.50;;;;;;5049226;28;20388;-83
2021/04/21 10:23:04;;;;;;;11.55;7.50;;;15.90;41.10;;;;;;5050577;28;20386;-83
2021/04/21 10:25:30;;;;;;;10.57;7.43;;;15.80;40.00;;;;;;5051053;28;20389;-82
2021/04/21 10:27:56;;;;;;;12.95;7.10;;;15.80;40.50;;;;;;5050478;28;20381;-84
2021/04/21 10:30:22;;;;;;;11.07;7.45;;;15.90;40.80;;;;;;5048602;28;20425;-83
2021/04/21 10:32:48;;;;;;;11.77;7.80;;;16.10;38.80;;;;;;5049214;28;20544;-82
2021/04/21 10:35:14;;;;;;;15.23;7.53;;;16.00;40.00;;;;;;5048763;28;20386;-83
2021/04/21 10:37:43;;;;;;;15.97;8.10;;;16.50;41.50;;;;;;5048463;28;20394;-83
2021/04/21 10:40:11;;;;;;;15.25;7.68;;;16.70;37.50;;;;;;5050142;28;20913;-83
2021/04/21 10:42:51;;;;;;;14.77;8.02;;;16.50;39.00;;;;;;5048749;28;20394;-82
2021/04/21 10:45:19;;;;;;;20.42;8.23;;;16.70;39.10;;;;;;5050411;28;20408;-82
2021/04/21 10:47:49;;;;;;;12.35;7.93;;;16.70;37.90;;;;;;5048075;28;20881;-82
2021/04/21 10:50:34;;;;;;;20.35;8.43;;;16.40;37.90;;;;;;5049162;28;20742;-83
2021/04/21 10:52:59;;;;;;;15.10;7.97;;;16.00;39.50;;;;;;5049617;28;20416;-82
2021/04/21 10:55:28;;;;;;;16.77;7.83;;;16.30;37.50;;;;;;5048557;28;20381;-83
2021/04/21 10:58:03;;;;;;;14.75;7.65;;;16.70;41.40;;;;;;5048414;28;20821;-83
2021/04/21 11:00:35;;;;;;;15.48;8.02;;;16.60;37.60;;;;;;5050283;28;20460;-83
2021/04/21 11:03:02;;;;;;;17.52;8.10;;;16.90;40.00;;;;;;5050223;28;20388;-84
2021/04/21 11:05:37;;;;;;;16.40;9.32;;;16.80;40.70;;;;;;5048126;28;20393;-83
2021/04/21 11:08:04;;;;;;;19.27;9.70;;;16.80;39.50;;;;;;5045427;28;20960;-83
2021/04/21 11:10:52;;;;;;;16.65;8.57;;;16.50;39.30;;;;;;5040327;28;20405;-83
2021/04/21 11:13:44;;;;;;;13.52;8.40;;;16.70;40.20;;;;;;5028789;28;20406;-82
2021/04/21 11:16:12;;;;;;;16.60;8.50;;;16.60;43.60;;;;;;5028205;28;20502;-82
2021/04/21 11:18:39;;;;;;;14.77;8.40;;;16.60;38.80;;;;;;5027760;28;20395;-83
2021/04/21 11:21:07;;;;;;;14.10;7.47;;;16.40;38.90;;;;;;5028040;28;20783;-83
2021/04/21 11:24:00;;;;;;;14.55;7.97;;;16.40;42.30;;;;;;5029186;28;20387;-83
2021/04/21 11:26:26;;;;;;;21.52;7.70;;;16.30;40.10;;;;;;5035398;28;20420;-83
2021/04/21 11:29:13;;;;;;;13.80;8.13;;;16.20;40.20;;;;;;5041275;28;20440;-83
2021/04/21 11:31:41;;;;;;;11.82;7.70;;;16.00;41.50;;;;;;5029582;28;20423;-82
2021/04/21 11:34:13;;;;;;;17.60;8.90;;;16.00;40.80;;;;;;5028107;28;20398;-84
2021/04/21 11:37:07;;;;;;;16.23;7.97;;;16.00;40.80;;;;;;5029021;28;20791;-82
2021/04/21 11:39:45;;;;;;;15.93;8.20;;;15.80;40.80;;;;;;5037576;28;20388;-82
2021/04/21 11:42:20;;;;;;;14.68;7.88;;;15.80;39.40;;;;;;5034369;28;20866;-82
2021/04/21 11:44:59;;;;;;;12.97;7.57;;;16.10;38.80;;;;;;5028490;28;20815;-82
2021/04/21 11:48:09;;;;;;;14.05;8.32;;;16.30;38.10;;;;;;5027658;28;20396;-83
2021/04/21 11:50:43;;;;;;;17.37;8.00;;;15.90;38.30;;;;;;4994628;28;20399;-82
2021/04/21 11:53:10;;;;;;;13.68;7.80;;;16.00;40.80;;;;;;5029060;28;20415;-81
2021/04/21 11:55:45;;;;;;;15.00;8.23;;;16.20;37.70;;;;;;5027621;28;20411;-81
2021/04/21 11:58:12;;;;;;;13.18;8.07;;;16.60;39.30;;;;;;5044883;28;20485;-82
2021/04/21 12:00:42;;;;;;;19.25;8.27;;;16.60;38.00;;;;;;5030372;28;20399;-82
2021/04/21 12:03:17;;;;;;;12.98;7.70;;;16.30;37.30;;;;;;5043112;28;20950;-81
2021/04/21 12:05:44;;;;;;;11.45;7.82;;;16.30;39.20;;;;;;5047472;28;20878;-80
2021/04/21 12:08:11;;;;;;;11.10;7.33;;;16.10;39.20;;;;;;5048656;28;20658;-81
2021/04/21 12:10:38;;;;;;;16.13;8.30;;;16.20;39.40;;;;;;5047483;28;20869;-80
2021/04/21 12:13:35;;;;;;;15.02;8.40;;;16.50;38.40;;;;;;5048681;28;20755;-81
2021/04/21 12:16:10;;;;;;;16.52;8.80;;;16.40;39.40;;;;;;5048744;28;20462;-80
2021/04/21 12:18:35;;;;;;;15.48;9.55;;;16.40;38.60;;;;;;5048286;28;20460;-81
2021/04/21 12:21:04;;;;;;;15.97;9.40;;;16.40;38.10;;;;;;5047387;28;20413;-80
2021/04/21 12:23:35;;;;;;;19.13;10.23;;;16.40;40.20;;;;;;5047377;28;20408;-82
2021/04/21 12:26:04;;;;;;;15.43;10.27;;;16.40;39.00;;;;;;5048456;28;20431;-81
2021/04/21 12:28:51;;;;;;;14.43;9.55;;;16.30;39.70;;;;;;5046868;28;20418;-81
2021/04/21 12:31:18;;;;;;;16.23;10.23;;;16.30;41.50;;;;;;5048521;28;20648;-81
2021/04/21 12:33:44;;;;;;;16.02;9.98;;;16.60;38.20;;;;;;5047247;28;20389;-81
2021/04/21 12:36:10;;;;;;;16.95;10.65;;;17.10;37.40;;;;;;5047169;28;20386;-81
2021/04/21 12:38:37;;;;;;;17.25;10.25;;;17.20;36.80;;;;;;5048325;28;20408;-81
2021/04/21 12:41:05;;;;;;;20.60;9.40;;;17.40;36.80;;;;;;5049873;28;20671;-81
2021/04/21 12:43:34;;;;;;;19.02;9.25;;;17.30;38.10;;;;;;5051030;28;20822;-81
2021/04/21 12:46:10;;;;;;;16.77;9.57;;;17.20;40.20;;;;;;5051114;28;20408;-81
2021/04/21 12:48:47;;;;;;;13.48;9.88;;;16.90;38.90;;;;;;5050539;28;20389;-81
2021/04/21 12:51:20;;;;;;;17.27;10.00;;;16.60;39.20;;;;;;5045422;28;20391;-81
2021/04/21 12:53:46;;;;;;;17.40;10.68;;;16.80;40.50;;;;;;5036889;28;20406;-80
2021/04/21 12:56:12;;;;;;;20.38;13.73;;;16.70;39.30;;;;;;5041923;28;20417;-80
2021/04/21 12:58:41;;;;;;;21.67;11.88;;;17.00;38.00;;;;;;5040915;28;20406;-81
2021/04/21 13:01:06;;;;;;;18.88;12.10;;;17.30;38.70;;;;;;5041423;28;20385;-82
2021/04/21 13:03:32;;;;;;;22.17;11.53;;;17.00;39.00;;;;;;5041561;28;20381;-81
2021/04/21 13:05:58;;;;;;;23.13;11.95;;;17.00;39.60;;;;;;5039954;28;20379;-80